Time;durP1;ratioP1;P1;durP2;ratioP2;P2;SDS_P1;SDS_P2;PMS_P1;PMS_P2;Temp;Humidity;BMP_temperature;BMP_pressure;BME280_temperature;BME280_humidity;BME280_pressure;Samples;Min_cycle;Max_cycle;Signal;HPM_P1;HPM_P2
2022/01/27 00:01:50;;;;;;;152.18;57.55;;;;;;;3.88;100.00;101629.38;4904004;29;20052;-82
2022/01/27 00:04:30;;;;;;;155.98;58.47;;;;;;;3.89;100.00;101636.31;4902426;29;20044;-82
2022/01/27 00:06:56;;;;;;;164.43;58.95;;;;;;;3.84;100.00;101648.03;4903653;29;20052;-81
2022/01/27 00:12:06;;;;;;;150.95;56.50;;;;;;;3.84;100.00;101645.41;4911044;29;20045;-82
2022/01/27 00:14:31;;;;;;;153.60;58.25;;;;;;;3.88;100.00;101649.53;4914855;29;20040;-82
2022/01/27 00:16:59;;;;;;;146.68;57.30;;;;;;;3.98;100.00;101656.75;4892923;29;20056;-81
2022/01/27 00:19:25;;;;;;;144.25;55.78;;;;;;;4.11;100.00;101657.69;4912419;29;20144;-81
2022/01/27 00:21:51;;;;;;;137.32;51.67;;;;;;;4.04;100.00;101655.56;4909890;29;20091;-80
2022/01/27 00:24:17;;;;;;;143.35;50.75;;;;;;;4.05;100.00;101644.09;4913933;29;20093;-80
2022/01/27 00:26:43;;;;;;;135.60;50.67;;;;;;;4.33;100.00;101620.50;4910695;29;20398;-84
2022/01/27 00:29:09;;;;;;;139.60;50.40;;;;;;;4.41;100.00;101607.72;4912240;29;20043;-80
2022/01/27 00:31:35;;;;;;;125.78;46.97;;;;;;;4.37;100.00;101600.16;4911876;29;20040;-81
2022/01/27 00:34:03;;;;;;;129.70;50.58;;;;;;;4.27;100.00;101615.63;4915496;29;20040;-81
2022/01/27 00:36:31;;;;;;;135.70;51.05;;;;;;;4.24;100.00;101626.31;4921907;29;20036;-80
2022/01/27 00:38:56;;;;;;;128.13;50.85;;;;;;;4.28;100.00;101630.41;4923042;29;20021;-79
2022/01/27 00:41:23;;;;;;;132.00;50.80;;;;;;;4.20;100.00;101640.56;4922689;29;20441;-82
2022/01/27 00:43:50;;;;;;;139.13;49.30;;;;;;;4.13;100.00;101647.13;4923981;29;20375;-80
2022/01/27 00:46:17;;;;;;;137.10;48.13;;;;;;;4.10;100.00;101644.69;4916500;29;20076;-81
2022/01/27 00:48:45;;;;;;;133.48;47.50;;;;;;;4.19;100.00;101644.13;4911461;29;20128;-83
2022/01/27 00:51:13;;;;;;;127.97;47.33;;;;;;;4.16;100.00;101633.81;4908719;29;20479;-81
2022/01/27 00:53:50;;;;;;;141.63;49.83;;;;;;;4.12;100.00;101637.56;4908704;29;20037;-82
2022/01/27 00:56:23;;;;;;;132.45;46.20;;;;;;;3.96;100.00;101632.41;4909659;29;20490;-81
2022/01/27 01:01:39;;;;;;;138.32;48.28;;;;;;;4.06;100.00;101627.44;4911989;29;20074;-81
2022/01/27 01:04:08;;;;;;;144.52;48.63;;;;;;;4.32;100.00;101625.81;4908636;29;20048;-81
2022/01/27 01:06:39;;;;;;;138.63;47.22;;;;;;;4.08;100.00;101617.69;4904991;29;20040;-82
2022/01/27 01:17:27;;;;;;;116.43;42.05;;;;;;;4.14;100.00;101625.19;4915675;29;20036;-81
2022/01/27 01:20:17;;;;;;;121.90;43.40;;;;;;;4.13;100.00;101626.97;4914690;29;20052;-83
2022/01/27 01:30:59;;;;;;;125.82;41.75;;;;;;;4.02;100.00;101620.69;4912881;29;20100;-81
2022/01/27 01:33:32;;;;;;;122.82;41.03;;;;;;;3.72;100.00;101610.25;4911331;29;20048;-81
2022/01/27 01:36:12;;;;;;;126.07;40.90;;;;;;;3.67;100.00;101603.63;4913982;29;20104;-81
2022/01/27 01:38:37;;;;;;;126.80;40.78;;;;;;;3.60;100.00;101606.63;4915062;29;20045;-81
2022/01/27 01:41:02;;;;;;;122.20;41.05;;;;;;;3.47;100.00;101604.81;4911993;29;20096;-82
2022/01/27 01:43:29;;;;;;;132.48;44.03;;;;;;;3.52;100.00;101600.97;4906160;29;20044;-82
2022/01/27 01:45:54;;;;;;;121.32;40.83;;;;;;;3.65;100.00;101601.91;4899304;29;20040;-80
2022/01/27 01:48:20;;;;;;;134.02;44.10;;;;;;;3.52;100.00;101608.81;4899329;29;20466;-80
2022/01/27 01:50:45;;;;;;;134.27;45.17;;;;;;;3.63;100.00;101614.28;4898895;29;20064;-80
2022/01/27 01:53:11;;;;;;;129.43;41.65;;;;;;;3.63;100.00;101602.97;4897670;29;20040;-82
2022/01/27 01:55:37;;;;;;;137.00;44.13;;;;;;;3.67;100.00;101606.25;4898709;29;20040;-82
2022/01/27 01:58:03;;;;;;;118.10;42.45;;;;;;;3.63;100.00;101606.44;4898966;29;20045;-81
2022/01/27 02:00:29;;;;;;;134.80;43.35;;;;;;;3.59;100.00;101612.78;4898461;29;20123;-82
2022/01/27 02:02:55;;;;;;;117.40;42.17;;;;;;;3.62;100.00;101607.34;4898853;29;20032;-81
2022/01/27 02:05:26;;;;;;;116.05;39.45;;;;;;;3.59;100.00;101607.53;4900447;29;20052;-81
2022/01/27 02:19:21;;;;;;;103.20;37.50;;;;;;;4.18;100.00;101592.56;4898649;29;20048;-80
2022/01/27 02:21:49;;;;;;;109.68;37.83;;;;;;;4.26;100.00;101585.06;4898902;29;20048;-82
2022/01/27 02:24:16;;;;;;;100.32;35.80;;;;;;;4.24;100.00;101584.34;4898556;29;20059;-80
2022/01/27 02:26:42;;;;;;;106.38;38.22;;;;;;;4.18;100.00;101587.31;4898489;29;20085;-81
2022/01/27 02:29:08;;;;;;;106.65;39.42;;;;;;;4.32;100.00;101589.94;4896943;29;20561;-81
2022/01/27 02:31:34;;;;;;;108.50;39.20;;;;;;;4.11;100.00;101586.00;4898579;29;20040;-83
2022/01/27 02:34:00;;;;;;;102.10;37.40;;;;;;;4.19;100.00;101602.13;4898619;29;20040;-82
2022/01/27 02:36:27;;;;;;;101.25;38.28;;;;;;;4.28;100.00;101598.94;4898517;29;20118;-82
2022/01/27 02:38:53;;;;;;;100.40;36.70;;;;;;;4.41;100.00;101591.16;4898418;29;20510;-81
2022/01/27 02:41:21;;;;;;;97.15;35.05;;;;;;;3.90;100.00;101588.19;4898170;29;20059;-80
2022/01/27 02:43:46;;;;;;;94.72;35.13;;;;;;;3.70;100.00;101592.94;4898249;29;20127;-80
2022/01/27 02:46:20;;;;;;;89.65;34.38;;;;;;;3.68;100.00;101584.34;4898091;29;20060;-82
2022/01/27 02:48:46;;;;;;;88.18;33.90;;;;;;;3.50;100.00;101571.41;4901527;29;20033;-80
2022/01/27 02:51:12;;;;;;;96.65;33.10;;;;;;;3.77;100.00;101568.06;4898075;29;20491;-81
2022/01/27 02:53:39;;;;;;;83.00;31.30;;;;;;;3.73;100.00;101563.94;4897923;29;20071;-81
2022/01/27 02:56:05;;;;;;;88.43;31.85;;;;;;;3.56;100.00;101571.03;4897783;29;20032;-81
2022/01/27 02:58:31;;;;;;;95.13;33.08;;;;;;;3.57;100.00;101557.00;4897615;29;20040;-82
2022/01/27 03:00:56;;;;;;;91.30;33.05;;;;;;;3.69;100.00;101546.69;4897707;29;20124;-81
2022/01/27 03:03:22;;;;;;;91.55;33.53;;;;;;;3.59;100.00;101564.75;4897609;29;20052;-83
2022/01/27 03:05:48;;;;;;;99.82;34.40;;;;;;;3.88;100.00;101561.19;4897366;29;20554;-81
2022/01/27 03:08:13;;;;;;;103.05;35.78;;;;;;;3.73;100.00;101562.16;4897588;29;20041;-82
2022/01/27 03:10:45;;;;;;;96.70;35.67;;;;;;;3.61;100.00;101562.91;4897991;29;20033;-81
2022/01/27 03:13:10;;;;;;;103.45;35.55;;;;;;;3.61;100.00;101560.28;4901473;29;20048;-81
2022/01/27 03:15:36;;;;;;;93.28;33.00;;;;;;;3.70;100.00;101558.88;4901624;29;20056;-80
2022/01/27 03:18:01;;;;;;;97.95;34.78;;;;;;;3.78;100.00;101541.72;4901351;29;20036;-82
2022/01/27 03:20:32;;;;;;;96.68;34.03;;;;;;;3.92;100.00;101525.16;4901656;29;20497;-82
2022/01/27 03:22:59;;;;;;;100.95;37.15;;;;;;;3.90;100.00;101527.03;4901010;29;20051;-82
2022/01/27 03:25:26;;;;;;;109.55;39.03;;;;;;;3.83;100.00;101530.97;4901190;29;20071;-81
2022/01/27 03:27:51;;;;;;;112.40;40.78;;;;;;;3.65;100.00;101531.16;4901143;29;20037;-81
2022/01/27 03:30:17;;;;;;;115.70;41.92;;;;;;;3.58;100.00;101534.22;4901347;29;20048;-80
2022/01/27 03:32:44;;;;;;;112.43;40.38;;;;;;;3.91;100.00;101518.25;4914687;29;20089;-79
2022/01/27 03:35:10;;;;;;;112.70;39.72;;;;;;;4.07;100.00;101519.81;4904734;29;20447;-80
2022/01/27 03:37:35;;;;;;;112.45;39.75;;;;;;;3.73;100.00;101522.81;4901431;29;20040;-81
2022/01/27 03:40:02;;;;;;;115.20;40.72;;;;;;;3.65;100.00;101518.03;4901266;29;20124;-81
2022/01/27 03:42:28;;;;;;;112.45;40.25;;;;;;;3.52;100.00;101522.34;4899581;29;20451;-81
2022/01/27 03:44:54;;;;;;;102.78;38.92;;;;;;;3.65;100.00;101518.03;4900849;29;20069;-81
2022/01/27 03:47:20;;;;;;;103.07;38.50;;;;;;;3.75;100.00;101525.34;4901051;29;20032;-83
2022/01/27 03:49:45;;;;;;;107.25;40.70;;;;;;;3.71;100.00;101527.34;4900872;29;20514;-81
2022/01/27 03:52:11;;;;;;;112.80;38.08;;;;;;;3.85;100.00;101515.97;4900785;29;20052;-82
2022/01/27 03:54:36;;;;;;;100.85;34.83;;;;;;;4.00;100.00;101517.66;4900697;29;20389;-82
2022/01/27 03:57:02;;;;;;;90.75;35.40;;;;;;;3.87;100.00;101520.22;4900802;29;20135;-81
2022/01/27 03:59:28;;;;;;;99.43;36.33;;;;;;;3.95;100.00;101509.22;4900752;29;20028;-82
2022/01/27 04:01:55;;;;;;;99.13;36.60;;;;;;;3.91;100.00;101502.50;4900666;29;20040;-81
2022/01/27 04:04:20;;;;;;;91.00;35.17;;;;;;;3.99;100.00;101505.47;4901888;29;20120;-81
2022/01/27 04:06:50;;;;;;;92.40;34.30;;;;;;;3.93;100.00;101506.72;4900985;29;20555;-81
2022/01/27 04:09:15;;;;;;;101.13;36.83;;;;;;;3.81;100.00;101514.50;4900385;29;20048;-83
2022/01/27 04:11:41;;;;;;;87.47;33.72;;;;;;;3.65;100.00;101512.81;4901016;29;20043;-82
2022/01/27 04:14:07;;;;;;;87.15;32.53;;;;;;;3.56;100.00;101505.50;4900713;29;20479;-82
2022/01/27 04:16:33;;;;;;;100.38;35.55;;;;;;;3.55;100.00;101505.59;4900294;29;20045;-82
2022/01/27 04:18:59;;;;;;;99.68;34.47;;;;;;;3.63;100.00;101504.19;4900248;29;20360;-80
2022/01/27 04:21:24;;;;;;;90.75;32.33;;;;;;;3.89;100.00;101504.34;4900080;29;20033;-81
2022/01/27 04:23:50;;;;;;;90.68;34.33;;;;;;;3.72;100.00;101501.94;4900258;29;20387;-82
2022/01/27 04:26:21;;;;;;;89.80;32.85;;;;;;;3.77;100.00;101500.72;4900049;29;20044;-81
2022/01/27 04:28:48;;;;;;;88.10;32.55;;;;;;;3.71;100.00;101505.50;4900318;29;20048;-81
2022/01/27 04:31:14;;;;;;;84.93;31.05;;;;;;;3.62;100.00;101507.75;4900520;29;20487;-82
2022/01/27 04:33:40;;;;;;;93.43;32.88;;;;;;;3.39;100.00;101515.31;4900423;29;20092;-81
2022/01/27 04:36:31;;;;;;;80.15;30.60;;;;;;;3.57;100.00;101504.59;4899841;29;20033;-81
2022/01/27 04:39:07;;;;;;;85.70;30.60;;;;;;;3.45;100.00;101515.78;4899537;29;20072;-82
2022/01/27 04:41:43;;;;;;;93.80;31.58;;;;;;;3.46;100.00;101527.97;4900175;29;20063;-82
2022/01/27 04:47:06;;;;;;;86.97;31.38;;;;;;;3.34;100.00;101538.34;4899941;29;20061;-81
2022/01/27 04:49:31;;;;;;;84.57;30.90;;;;;;;3.33;100.00;101545.34;4899949;29;20048;-80
2022/01/27 04:51:57;;;;;;;89.30;32.75;;;;;;;3.29;100.00;101540.38;4898218;29;20123;-81
2022/01/27 04:54:54;;;;;;;97.47;32.45;;;;;;;3.24;100.00;101538.03;4899666;29;20037;-81
2022/01/27 04:57:08;;;;;;;92.13;32.33;;;;;;;3.24;100.00;101530.19;4909627;29;20048;-80
2022/01/27 04:59:39;;;;;;;90.50;31.90;;;;;;;3.24;100.00;101542.44;4904748;29;20040;-81
2022/01/27 05:02:11;;;;;;;98.90;33.72;;;;;;;3.19;100.00;101539.22;4899058;29;20123;-81
2022/01/27 05:04:42;;;;;;;90.18;33.33;;;;;;;3.36;100.00;101526.81;4899143;29;20052;-81
2022/01/27 05:07:08;;;;;;;90.72;32.75;;;;;;;3.47;100.00;101534.03;4899590;29;20049;-80
2022/01/27 05:09:35;;;;;;;84.00;31.40;;;;;;;3.46;100.00;101527.97;4899494;29;20120;-82
2022/01/27 05:12:41;;;;;;;84.93;31.00;;;;;;;3.38;100.00;101526.75;4899343;29;20032;-81
2022/01/27 05:14:53;;;;;;;92.97;32.72;;;;;;;3.39;100.00;101531.88;4896912;29;20057;-80
2022/01/27 05:17:19;;;;;;;86.72;30.77;;;;;;;3.40;100.00;101545.81;4900030;29;20155;-81
2022/01/27 05:19:47;;;;;;;88.70;31.05;;;;;;;3.30;100.00;101548.16;4905515;29;20048;-81
2022/01/27 05:22:13;;;;;;;89.57;31.92;;;;;;;3.01;100.00;101557.72;4899331;29;20106;-80
2022/01/27 05:24:39;;;;;;;101.00;33.58;;;;;;;3.00;100.00;101552.56;4899127;29;20041;-81
2022/01/27 05:27:05;;;;;;;98.43;31.98;;;;;;;3.19;100.00;101554.94;4899221;29;20039;-79
2022/01/27 05:29:30;;;;;;;89.63;32.13;;;;;;;3.07;100.00;101551.28;4899103;29;20060;-81
2022/01/27 05:31:56;;;;;;;100.65;33.13;;;;;;;2.94;100.00;101545.91;4898939;29;20037;-81
2022/01/27 05:34:21;;;;;;;96.28;33.50;;;;;;;2.86;100.00;101545.50;4898629;29;20163;-81
2022/01/27 05:36:47;;;;;;;105.43;35.17;;;;;;;3.12;100.00;101547.44;4899440;29;20048;-82
2022/01/27 05:39:12;;;;;;;99.57;34.22;;;;;;;3.01;100.00;101547.25;4899649;29;20040;-81
2022/01/27 05:41:38;;;;;;;102.90;33.20;;;;;;;3.12;100.00;101546.59;4901108;29;20040;-79
2022/01/27 05:44:05;;;;;;;101.70;33.95;;;;;;;3.08;100.00;101552.97;4904135;29;20067;-78
2022/01/27 05:46:30;;;;;;;100.60;33.63;;;;;;;3.03;100.00;101549.75;4903330;29;20482;-81
2022/01/27 05:48:56;;;;;;;94.07;32.33;;;;;;;3.05;100.00;101547.88;4902069;29;20124;-80
2022/01/27 05:51:24;;;;;;;112.75;35.38;;;;;;;2.94;100.00;101543.28;4908357;29;20256;-81
2022/01/27 05:53:50;;;;;;;102.57;33.58;;;;;;;2.93;100.00;101544.22;4915716;29;20048;-80
2022/01/27 05:56:15;;;;;;;113.90;37.05;;;;;;;2.89;100.00;101547.09;4909622;29;20031;-81
2022/01/27 05:58:41;;;;;;;106.03;33.75;;;;;;;2.94;100.00;101550.31;4911284;29;20397;-81
2022/01/27 06:01:06;;;;;;;100.25;35.25;;;;;;;2.86;100.00;101552.50;4912264;29;20043;-79
2022/01/27 06:03:32;;;;;;;105.20;35.17;;;;;;;2.95;100.00;101552.00;4915674;29;20044;-81
2022/01/27 06:05:57;;;;;;;103.13;34.30;;;;;;;3.06;100.00;101560.06;4918210;29;20156;-80
2022/01/27 06:08:25;;;;;;;107.50;36.05;;;;;;;2.94;100.00;101560.78;4918714;29;20500;-80
2022/01/27 06:10:51;;;;;;;104.32;34.45;;;;;;;2.91;100.00;101560.94;4931779;29;20390;-81
2022/01/27 06:13:17;;;;;;;104.18;35.10;;;;;;;2.97;100.00;101555.34;4916339;29;20055;-80
2022/01/27 06:15:42;;;;;;;107.55;36.13;;;;;;;2.95;100.00;101573.75;4917589;29;20054;-81
2022/01/27 06:18:08;;;;;;;101.93;33.80;;;;;;;2.92;100.00;101578.31;4917218;29;20375;-80
2022/01/27 06:20:34;;;;;;;101.05;35.17;;;;;;;2.91;100.00;101576.66;4920905;29;20524;-80
2022/01/27 06:22:59;;;;;;;103.00;33.80;;;;;;;2.89;100.00;101579.34;4938322;29;20040;-81
2022/01/27 06:25:26;;;;;;;102.35;34.42;;;;;;;2.94;100.00;101577.34;4920016;29;20035;-82
2022/01/27 06:27:53;;;;;;;94.50;34.80;;;;;;;3.13;100.00;101569.25;4918293;29;20043;-80
2022/01/27 06:30:19;;;;;;;100.03;35.45;;;;;;;3.00;100.00;101570.88;4931733;29;20056;-81
2022/01/27 06:32:44;;;;;;;104.40;34.85;;;;;;;2.95;100.00;101565.09;4932295;29;20075;-80
2022/01/27 06:35:10;;;;;;;108.30;35.03;;;;;;;2.91;100.00;101568.81;4917868;29;20442;-81
2022/01/27 06:37:36;;;;;;;115.53;38.03;;;;;;;2.83;100.00;101573.63;4917686;29;20528;-81
2022/01/27 06:40:04;;;;;;;106.65;34.25;;;;;;;2.87;100.00;101570.75;4917955;29;20033;-79
2022/01/27 06:42:29;;;;;;;107.68;34.97;;;;;;;3.08;100.00;101573.94;4917328;29;20056;-80
2022/01/27 06:44:55;;;;;;;110.85;34.22;;;;;;;3.01;100.00;101575.19;4918302;29;20032;-82
2022/01/27 06:47:21;;;;;;;114.50;36.10;;;;;;;2.98;100.00;101578.00;4935894;29;20028;-81
2022/01/27 06:49:46;;;;;;;111.50;34.95;;;;;;;3.11;100.00;101578.97;4918768;29;20045;-81
2022/01/27 06:52:12;;;;;;;113.03;36.78;;;;;;;3.04;100.00;101581.09;4932179;29;20450;-80
2022/01/27 06:54:38;;;;;;;108.22;35.70;;;;;;;3.15;100.00;101580.47;4917732;29;20541;-79
2022/01/27 06:57:05;;;;;;;107.75;35.25;;;;;;;3.20;100.00;101588.06;4917129;29;20032;-83
2022/01/27 06:59:31;;;;;;;107.25;35.42;;;;;;;3.39;100.00;101594.75;4915871;29;20479;-80
2022/01/27 07:01:57;;;;;;;107.43;35.47;;;;;;;3.33;100.00;101595.13;4915810;29;20120;-81
2022/01/27 07:04:22;;;;;;;108.07;35.90;;;;;;;3.20;100.00;101599.41;4916700;29;20067;-80
2022/01/27 07:06:49;;;;;;;99.35;35.00;;;;;;;3.54;100.00;101599.13;4916498;29;20067;-82
2022/01/27 07:09:14;;;;;;;112.20;37.35;;;;;;;3.56;100.00;101607.72;4916153;29;20035;-81
2022/01/27 07:11:40;;;;;;;109.15;33.45;;;;;;;3.42;100.00;101610.31;4922434;29;20402;-83
2022/01/27 07:14:06;;;;;;;114.20;36.92;;;;;;;3.38;100.00;101606.16;4917451;29;20099;-81
2022/01/27 07:16:33;;;;;;;117.70;36.50;;;;;;;3.34;100.00;101612.53;4900470;29;20044;-83
2022/01/27 07:18:59;;;;;;;118.05;37.15;;;;;;;3.31;100.00;101609.25;4931207;29;20414;-83
2022/01/27 07:21:25;;;;;;;163.45;38.92;;;;;;;3.35;100.00;101608.13;4931753;29;20079;-81
2022/01/27 07:23:50;;;;;;;139.80;36.00;;;;;;;3.51;100.00;101609.75;4916503;29;20458;-79
2022/01/27 07:26:16;;;;;;;130.27;36.47;;;;;;;3.39;100.00;101609.63;4916353;29;20119;-82
2022/01/27 07:28:42;;;;;;;114.18;34.70;;;;;;;3.44;100.00;101602.38;4916293;29;20115;-82
2022/01/27 07:31:08;;;;;;;116.68;33.30;;;;;;;3.35;100.00;101597.63;4916787;29;20494;-81
2022/01/27 07:33:33;;;;;;;110.65;35.78;;;;;;;3.55;100.00;101603.41;4916331;29;20127;-82
2022/01/27 07:35:59;;;;;;;134.48;36.45;;;;;;;3.75;100.00;101601.38;4916394;29;20036;-80
2022/01/27 07:38:27;;;;;;;121.45;37.88;;;;;;;3.67;100.00;101601.00;4917560;29;20111;-81
2022/01/27 07:40:53;;;;;;;111.45;37.53;;;;;;;3.46;100.00;101606.56;4918029;29;20076;-81
2022/01/27 07:43:18;;;;;;;121.47;39.22;;;;;;;3.27;100.00;101605.13;4917711;29;20103;-81
2022/01/27 07:45:44;;;;;;;122.53;37.30;;;;;;;3.19;100.00;101613.41;4929159;29;20040;-80
2022/01/27 07:48:10;;;;;;;132.15;37.47;;;;;;;3.18;100.00;101611.75;4916755;29;20119;-82
2022/01/27 07:50:36;;;;;;;142.90;37.67;;;;;;;3.17;100.00;101617.06;4916266;29;20163;-81
2022/01/27 07:53:01;;;;;;;140.32;38.53;;;;;;;3.24;100.00;101627.09;4916373;29;20486;-82
2022/01/27 07:55:27;;;;;;;179.75;42.78;;;;;;;3.22;100.00;101628.09;4915920;29;20467;-80
2022/01/27 07:57:53;;;;;;;116.68;35.05;;;;;;;3.22;100.00;101636.81;4920203;29;20048;-87
2022/01/27 08:00:18;;;;;;;129.73;38.80;;;;;;;3.16;100.00;101639.78;4922881;29;20040;-84
2022/01/27 08:02:45;;;;;;;132.27;38.58;;;;;;;3.25;100.00;101633.19;4937149;29;20442;-85
2022/01/27 08:05:12;;;;;;;148.75;40.20;;;;;;;3.20;100.00;101633.44;4905499;29;20044;-86
2022/01/27 08:07:38;;;;;;;121.93;37.03;;;;;;;3.23;100.00;101640.28;4920038;29;20047;-88
2022/01/27 08:10:04;;;;;;;130.60;38.03;;;;;;;3.25;100.00;101634.00;4922449;29;20036;-86
2022/01/27 08:12:29;;;;;;;130.52;37.55;;;;;;;3.40;100.00;101642.78;4920374;29;20061;-86
2022/01/27 08:14:55;;;;;;;178.02;41.20;;;;;;;3.44;100.00;101647.75;4917627;29;20052;-86
2022/01/27 08:17:20;;;;;;;124.85;37.58;;;;;;;3.53;100.00;101655.06;4902328;29;20067;-87
2022/01/27 08:19:46;;;;;;;119.82;38.28;;;;;;;3.54;100.00;101656.78;4903669;29;20048;-87
2022/01/27 08:22:11;;;;;;;107.68;37.40;;;;;;;3.52;100.00;101652.53;4904414;29;20032;-89
2022/01/27 08:24:38;;;;;;;106.72;35.47;;;;;;;3.60;100.00;101661.66;4905652;29;20048;-87
2022/01/27 08:27:06;;;;;;;122.72;39.33;;;;;;;3.44;100.00;101660.88;4902790;29;20391;-88
2022/01/27 08:29:38;;;;;;;103.43;35.78;;;;;;;3.59;100.00;101669.59;4992636;23;20052;-88
2022/01/27 08:32:10;;;;;;;104.47;36.92;;;;;;;3.64;100.00;101673.66;4922493;29;20141;-87
2022/01/27 08:34:39;;;;;;;93.38;32.38;;;;;;;3.82;100.00;101683.97;4923560;29;20046;-86
2022/01/27 08:37:08;;;;;;;98.22;33.50;;;;;;;3.57;100.00;101680.19;4927476;29;20451;-86
2022/01/27 08:39:34;;;;;;;95.68;33.88;;;;;;;3.55;100.00;101681.19;4927082;29;20036;-85
2022/01/27 08:42:00;;;;;;;83.40;30.92;;;;;;;3.59;100.00;101680.94;4906156;29;20110;-85
2022/01/27 08:44:26;;;;;;;100.07;35.28;;;;;;;3.59;100.00;101678.31;4904309;29;20041;-86
2022/01/27 08:46:52;;;;;;;105.93;36.55;;;;;;;3.42;100.00;101681.06;4902111;29;20076;-85
2022/01/27 08:49:20;;;;;;;117.25;37.53;;;;;;;3.67;100.00;101687.50;4904972;29;20096;-88
2022/01/27 08:51:46;;;;;;;100.22;34.72;;;;;;;3.82;100.00;101694.47;4907659;29;20042;-86
2022/01/27 08:54:15;;;;;;;91.40;34.17;;;;;;;3.66;100.00;101691.91;4907084;29;20026;-87
2022/01/27 08:56:42;;;;;;;102.43;35.25;;;;;;;3.68;100.00;101694.44;4904037;29;20124;-85
2022/01/27 08:59:08;;;;;;;217.32;42.30;;;;;;;3.76;100.00;101692.19;4906722;29;20040;-87
2022/01/27 09:01:34;;;;;;;105.10;35.08;;;;;;;3.73;100.00;101698.47;4906785;29;20044;-83
2022/01/27 09:03:59;;;;;;;99.03;36.15;;;;;;;3.70;100.00;101697.81;4907011;29;20044;-86
2022/01/27 09:06:28;;;;;;;103.90;35.67;;;;;;;3.68;100.00;101704.94;4904662;29;20085;-87
2022/01/27 09:08:55;;;;;;;105.32;36.75;;;;;;;3.67;100.00;101698.00;4908772;29;20036;-86
2022/01/27 09:11:21;;;;;;;117.18;41.25;;;;;;;3.65;100.00;101692.81;4942927;29;20036;-89
2022/01/27 09:13:46;;;;;;;126.95;42.20;;;;;;;3.78;100.00;101698.22;4928296;29;20040;-89
2022/01/27 09:16:12;;;;;;;157.52;44.50;;;;;;;4.04;100.00;101708.00;4927317;29;20042;-87
2022/01/27 09:18:39;;;;;;;124.78;42.70;;;;;;;4.00;100.00;101717.84;4929449;29;20032;-86
2022/01/27 09:21:16;;;;;;;107.85;41.33;;;;;;;3.94;100.00;101712.13;4927436;29;20094;-88
2022/01/27 09:23:45;;;;;;;127.25;45.67;;;;;;;3.80;100.00;101706.81;4927667;29;20044;-88
2022/01/27 09:26:40;;;;;;;136.52;42.72;;;;;;;3.81;100.00;101706.72;4943108;29;20044;-88
2022/01/27 09:28:56;;;;;;;116.70;43.58;;;;;;;3.92;100.00;101706.09;4929795;29;20040;-88
2022/01/27 09:31:22;;;;;;;125.93;42.75;;;;;;;4.09;100.00;101708.56;4913716;29;20059;-86
2022/01/27 09:33:47;;;;;;;130.05;42.03;;;;;;;4.27;100.00;101707.47;4915862;29;20147;-86
2022/01/27 09:36:13;;;;;;;144.65;44.20;;;;;;;4.31;100.00;101711.56;4927696;29;20040;-87
2022/01/27 09:38:39;;;;;;;111.10;39.20;;;;;;;4.26;100.00;101708.41;4928335;29;20418;-87
2022/01/27 09:41:07;;;;;;;103.35;39.97;;;;;;;4.12;100.00;101705.75;4926734;29;20111;-86
2022/01/27 09:43:35;;;;;;;103.82;40.92;;;;;;;4.13;100.00;101705.69;4925201;29;20042;-87
2022/01/27 09:46:05;;;;;;;136.68;42.65;;;;;;;4.37;100.00;101708.59;4924112;29;20040;-87
2022/01/27 09:48:40;;;;;;;113.32;40.05;;;;;;;4.39;100.00;101698.84;4925620;29;20048;-88
2022/01/27 09:53:57;;;;;;;98.35;37.13;;;;;;;4.44;100.00;101701.19;4923233;29;20492;-85
2022/01/27 09:56:24;;;;;;;96.03;35.70;;;;;;;4.27;100.00;101699.59;4918428;29;20036;-84
2022/01/27 09:58:50;;;;;;;95.35;36.25;;;;;;;4.34;100.00;101706.13;4919415;29;20036;-87
2022/01/27 10:01:16;;;;;;;96.85;37.70;;;;;;;4.13;100.00;101708.31;4903388;29;20159;-86
2022/01/27 10:03:58;;;;;;;110.78;40.00;;;;;;;4.11;100.00;101698.81;4911831;29;20501;-88
2022/01/27 10:06:32;;;;;;;95.57;31.13;;;;;;;4.15;100.00;101697.69;4916817;29;20071;-83
2022/01/27 10:09:15;;;;;;;312.83;52.83;;;;;;;4.46;100.00;101688.81;4920167;29;20288;-86
2022/01/27 10:11:42;;;;;;;92.25;28.85;;;;;;;4.47;100.00;101683.47;4922125;29;20047;-87
2022/01/27 10:14:18;;;;;;;104.85;38.13;;;;;;;4.57;100.00;101684.56;4919972;29;20044;-88
2022/01/27 10:16:44;;;;;;;98.43;36.85;;;;;;;4.43;100.00;101683.75;4921914;29;20102;-85
2022/01/27 10:19:12;;;;;;;108.95;39.00;;;;;;;4.22;100.00;101677.19;4927050;29;20036;-86
2022/01/27 10:21:38;;;;;;;99.03;37.80;;;;;;;4.40;100.00;101683.94;4920479;29;20040;-87
2022/01/27 10:24:26;;;;;;;97.72;38.10;;;;;;;4.12;100.00;101676.91;4885447;29;20049;-85
2022/01/27 10:33:00;;;;;;;98.88;37.13;;;;;;;4.03;100.00;101669.59;4925865;29;20048;-84
2022/01/27 10:35:27;;;;;;;114.32;41.90;;;;;;;4.02;100.00;101678.38;4917135;29;20063;-84
2022/01/27 10:38:08;;;;;;;97.03;37.60;;;;;;;4.00;100.00;101664.53;4916846;29;20107;-85
2022/01/27 10:40:34;;;;;;;109.45;38.72;;;;;;;4.06;100.00;101661.53;4923796;29;20036;-84
2022/01/27 10:43:23;;;;;;;101.28;37.70;;;;;;;4.03;100.00;101659.94;4921278;29;20039;-85
2022/01/27 10:46:26;;;;;;;103.38;38.63;;;;;;;4.00;100.00;101654.88;4902699;29;20044;-84
2022/01/27 10:49:05;;;;;;;102.35;38.00;;;;;;;4.06;100.00;101651.88;4902511;29;20036;-86
2022/01/27 10:51:44;;;;;;;100.47;39.22;;;;;;;4.08;100.00;101642.13;4919995;29;20509;-84
2022/01/27 10:54:21;;;;;;;99.43;38.03;;;;;;;4.18;100.00;101635.38;4920124;29;20039;-86
2022/01/27 10:56:48;;;;;;;103.60;40.35;;;;;;;4.01;100.00;101637.38;4902666;29;20092;-85
2022/01/27 10:59:16;;;;;;;106.03;39.50;;;;;;;4.08;100.00;101636.03;4901592;29;20040;-83
2022/01/27 11:01:46;;;;;;;110.95;41.58;;;;;;;4.21;100.00;101620.41;4904373;29;20048;-85
2022/01/27 11:04:19;;;;;;;102.65;40.70;;;;;;;4.26;100.00;101629.69;4921341;29;20036;-89
2022/01/27 11:06:59;;;;;;;108.80;42.20;;;;;;;4.27;100.00;101623.50;4923564;29;20040;-86
2022/01/27 11:09:44;;;;;;;125.22;44.70;;;;;;;4.22;100.00;101617.69;4924644;29;20096;-89
2022/01/27 11:12:18;;;;;;;115.78;43.42;;;;;;;4.35;100.00;101629.09;4925667;29;20060;-89
2022/01/27 11:14:51;;;;;;;111.97;42.28;;;;;;;4.24;100.00;101613.19;4941229;29;20134;-85
2022/01/27 11:17:21;;;;;;;118.72;44.30;;;;;;;4.24;100.00;101615.81;4926791;29;20040;-88
2022/01/27 11:28:02;;;;;;;125.38;43.38;;;;;;;4.35;100.00;101608.09;4902344;29;20562;-85
2022/01/27 11:30:36;;;;;;;121.60;45.92;;;;;;;4.34;100.00;101601.16;4915671;29;20043;-89
2022/01/27 11:33:10;;;;;;;114.10;43.70;;;;;;;4.32;100.00;101607.47;4913275;29;20044;-87
2022/01/27 11:35:40;;;;;;;113.90;45.72;;;;;;;4.34;100.00;101600.34;4911899;29;20036;-85
2022/01/27 11:38:08;;;;;;;119.45;48.15;;;;;;;4.33;100.00;101593.41;4916496;29;20119;-87
2022/01/27 11:40:40;;;;;;;115.00;45.47;;;;;;;4.27;100.00;101589.41;4921179;29;20470;-86
2022/01/27 11:43:14;;;;;;;121.47;46.38;;;;;;;4.24;100.00;101579.09;4924500;29;20055;-87
2022/01/27 11:46:02;;;;;;;126.00;44.22;;;;;;;4.62;100.00;101585.38;4940736;29;20096;-86
2022/01/27 11:48:29;;;;;;;110.43;43.05;;;;;;;4.43;100.00;101582.25;4924357;29;20048;-86
2022/01/27 11:51:15;;;;;;;108.80;42.95;;;;;;;4.30;100.00;101568.22;4928286;29;20055;-86
2022/01/27 11:53:52;;;;;;;116.70;45.90;;;;;;;4.38;100.00;101571.19;4928964;29;20048;-87
2022/01/27 11:56:26;;;;;;;108.97;42.38;;;;;;;4.35;100.00;101566.13;4929843;29;20079;-83
2022/01/27 11:59:06;;;;;;;107.47;40.58;;;;;;;4.52;100.00;101558.03;4926973;29;20036;-83
2022/01/27 12:01:57;;;;;;;98.18;40.25;;;;;;;4.48;100.00;101551.28;4926397;29;20418;-86
2022/01/27 12:04:25;;;;;;;82.43;32.77;;;;;;;4.84;100.00;101557.75;4922604;29;20075;-88